Time,TemperatureF,DewpointF,PressureIn,WindDirection,WindDirectionDegrees,WindSpeedMPH,WindSpeedGustMPH,Humidity,HourlyPrecipIn,Conditions,Clouds,dailyrainin,SoftwareType,DateUTC
2013-01-09 00:00:00,17.8,12.4,30.29,WNW,294,3.1,3.1,79,0.00,,OVC013,0.00,VWS V14.01,2013-01-09 05:00:00,
2013-01-09 00:01:00,17.8,12.4,30.29,WNW,294,3.1,3.1,79,0.00,,OVC013,0.00,VWS V14.01,2013-01-09 05:01:00,
2013-01-09 00:03:00,17.6,12.2,30.29,WNW,294,3.1,3.1,79,0.00,,OVC013,0.00,VWS V14.01,2013-01-09 05:03:00,
2013-01-09 00:08:00,17.4,12.0,30.29,WNW,294,3.1,3.1,79,0.00,,OVC013,0.00,VWS V14.01,2013-01-09 05:08:00,
2013-01-09 00:13:00,17.4,12.0,30.29,WNW,294,3.1,3.1,79,0.00,,OVC013,0.00,VWS V14.01,2013-01-09 05:13:00,
2013-01-09 00:18:00,17.2,11.9,30.29,WNW,294,3.1,3.1,79,0.00,,OVC013,0.00,VWS V14.01,2013-01-09 05:18:00,
2013-01-09 00:23:00,17.1,12.0,30.29,WNW,294,3.1,3.1,80,0.00,,OVC013,0.00,VWS V14.01,2013-01-09 05:23:00,
2013-01-09 00:28:00,17.1,12.0,30.29,WNW,294,3.1,3.1,80,0.00,,OVC013,0.00,VWS V14.01,2013-01-09 05:28:00,
2013-01-09 00:33:00,17.1,12.0,30.29,WNW,294,3.1,3.1,80,0.00,,OVC013,0.00,VWS V14.01,2013-01-09 05:33:00,
2013-01-09 00:38:00,17.1,12.0,30.29,WNW,294,3.1,3.1,80,0.00,,OVC013,0.00,VWS V14.01,2013-01-09 05:38:00,
2013-01-09 00:43:00,17.1,12.0,30.29,WNW,294,3.1,3.1,80,0.00,,,0.00,VWS V14.01,2013-01-09 05:43:00,
2013-01-09 00:48:00,16.9,11.8,30.29,WNW,294,3.1,3.1,80,0.00,,,0.00,VWS V14.01,2013-01-09 05:48:00,
2013-01-09 00:53:00,16.7,11.6,30.29,WNW,294,3.1,3.1,80,0.00,,,0.00,VWS V14.01,2013-01-09 05:53:00,
2013-01-09 00:58:00,16.3,11.3,30.29,WNW,294,3.1,3.1,80,0.00,,,0.00,VWS V14.01,2013-01-09 05:58:00,
2013-01-09 01:03:00,16.3,11.3,30.29,WNW,294,3.1,3.1,80,0.00,,,0.00,VWS V14.01,2013-01-09 06:03:00,
2013-01-09 01:08:00,16.2,11.1,30.29,WNW,294,3.1,3.1,80,0.00,,,0.00,VWS V14.01,2013-01-09 06:08:00,
2013-01-09 01:13:00,15.8,10.7,30.29,WNW,294,3.1,3.1,80,0.00,,,0.00,VWS V14.01,2013-01-09 06:13:00,
2013-01-09 01:18:00,15.8,10.7,30.26,WNW,294,3.1,3.1,80,0.00,,,0.00,VWS V14.01,2013-01-09 06:18:00,
2013-01-09 01:23:00,15.6,10.6,30.26,WNW,294,3.1,3.1,80,0.00,,,0.00,VWS V14.01,2013-01-09 06:23:00,
2013-01-09 01:28:00,15.3,10.2,30.26,WNW,294,3.1,3.1,80,0.00,,,0.00,VWS V14.01,2013-01-09 06:28:00,
2013-01-09 01:33:00,15.1,10.3,30.26,WNW,294,3.1,3.1,81,0.00,,,0.00,VWS V14.01,2013-01-09 06:33:00,
2013-01-09 01:38:00,15.1,10.3,30.29,WNW,294,3.1,3.1,81,0.00,,,0.00,VWS V14.01,2013-01-09 06:38:00,
2013-01-09 01:43:00,14.9,10.1,30.29,WNW,294,3.1,3.1,81,0.00,,,0.00,VWS V14.01,2013-01-09 06:43:00,
2013-01-09 01:48:00,14.9,10.1,30.29,WNW,294,3.1,3.1,81,0.00,,,0.00,VWS V14.01,2013-01-09 06:48:00,
2013-01-09 01:53:00,15.1,10.3,30.29,WNW,294,3.1,3.1,81,0.00,,,0.00,VWS V14.01,2013-01-09 06:53:00,
2013-01-09 01:58:00,15.1,10.3,30.29,WNW,294,3.1,3.1,81,0.00,,,0.00,VWS V14.01,2013-01-09 06:58:00,
2013-01-09 02:03:00,14.9,10.1,30.29,WNW,294,3.1,3.1,81,0.00,,,0.00,VWS V14.01,2013-01-09 07:03:00,
2013-01-09 02:09:00,14.7,10.0,30.29,WNW,294,3.1,3.1,81,0.00,,,0.00,VWS V14.01,2013-01-09 07:09:00,
2013-01-09 02:14:00,14.5,9.8,30.29,WNW,294,3.1,3.1,81,0.00,,,0.00,VWS V14.01,2013-01-09 07:14:00,
2013-01-09 02:19:00,14.5,9.8,30.26,WNW,294,3.1,3.1,81,0.00,,,0.00,VWS V14.01,2013-01-09 07:19:00,
2013-01-09 02:24:00,14.4,9.6,30.26,WNW,294,3.1,3.1,81,0.00,,,0.00,VWS V14.01,2013-01-09 07:24:00,
2013-01-09 02:29:00,14.2,9.4,30.26,WNW,294,3.1,3.1,81,0.00,,,0.00,VWS V14.01,2013-01-09 07:29:00,
2013-01-09 02:34:00,14.2,9.4,30.26,WNW,294,3.1,3.1,81,0.00,,,0.00,VWS V14.01,2013-01-09 07:34:00,
2013-01-09 02:39:00,14.0,9.3,30.26,WNW,294,3.1,3.1,81,0.00,,,0.00,VWS V14.01,2013-01-09 07:39:00,
2013-01-09 02:44:00,13.6,8.9,30.26,WNW,294,3.1,3.1,81,0.00,,,0.00,VWS V14.01,2013-01-09 07:44:00,
2013-01-09 02:49:00,13.5,8.7,30.26,WNW,294,3.1,3.1,81,0.00,,,0.00,VWS V14.01,2013-01-09 07:49:00,
2013-01-09 02:54:00,13.3,8.6,30.29,WNW,294,3.1,3.1,81,0.00,,,0.00,VWS V14.01,2013-01-09 07:54:00,
2013-01-09 02:59:00,13.1,8.4,30.29,WNW,294,3.1,3.1,81,0.00,,,0.00,VWS V14.01,2013-01-09 07:59:00,
2013-01-09 03:04:00,12.9,8.2,30.29,WNW,294,3.1,3.1,81,0.00,,,0.00,VWS V14.01,2013-01-09 08:04:00,
2013-01-09 03:09:00,12.7,8.0,30.29,WNW,294,3.1,3.1,81,0.00,,,0.00,VWS V14.01,2013-01-09 08:09:00,
2013-01-09 03:14:00,12.6,7.8,30.26,WNW,294,3.1,3.1,81,0.00,,,0.00,VWS V14.01,2013-01-09 08:14:00,
2013-01-09 03:19:00,12.2,7.5,30.26,WNW,294,3.1,3.1,81,0.00,,,0.00,VWS V14.01,2013-01-09 08:19:00,
2013-01-09 03:24:00,12.0,7.3,30.26,WNW,294,3.1,3.1,81,0.00,,,0.00,VWS V14.01,2013-01-09 08:24:00,
2013-01-09 03:29:00,11.8,7.1,30.26,WNW,294,3.1,3.1,81,0.00,,,0.00,VWS V14.01,2013-01-09 08:29:00,
2013-01-09 03:34:00,11.7,7.0,30.26,WNW,294,3.1,3.1,81,0.00,,,0.00,VWS V14.01,2013-01-09 08:34:00,
2013-01-09 03:39:00,11.7,7.0,30.26,WNW,294,3.1,3.1,81,0.00,,,0.00,VWS V14.01,2013-01-09 08:39:00,
2013-01-09 03:44:00,11.5,6.8,30.26,WNW,294,3.1,3.1,81,0.00,,,0.00,VWS V14.01,2013-01-09 08:44:00,
2013-01-09 03:49:00,11.3,6.6,30.26,WNW,294,3.1,3.1,81,0.00,,,0.00,VWS V14.01,2013-01-09 08:49:00,
2013-01-09 03:54:00,11.1,6.4,30.26,WNW,294,3.1,3.1,81,0.00,,,0.00,VWS V14.01,2013-01-09 08:54:00,
2013-01-09 03:59:00,10.9,6.3,30.26,WNW,294,3.1,3.1,81,0.00,,,0.00,VWS V14.01,2013-01-09 08:59:00,
2013-01-09 04:04:00,10.8,6.1,30.26,WNW,294,3.1,3.1,81,0.00,,,0.00,VWS V14.01,2013-01-09 09:04:00,
2013-01-09 04:09:00,10.6,5.9,30.26,WNW,294,3.1,3.1,81,0.00,,,0.00,VWS V14.01,2013-01-09 09:09:00,
2013-01-09 04:14:00,10.4,5.7,30.26,WNW,294,3.1,3.1,81,0.00,,,0.00,VWS V14.01,2013-01-09 09:14:00,
2013-01-09 04:19:00,10.2,5.6,30.26,WNW,294,3.1,3.1,81,0.00,,,0.00,VWS V14.01,2013-01-09 09:19:00,
2013-01-09 04:24:00,10.0,5.4,30.26,WNW,294,3.1,3.1,81,0.00,,,0.00,VWS V14.01,2013-01-09 09:24:00,
2013-01-09 04:29:00,9.9,5.2,30.26,WNW,294,3.1,3.1,81,0.00,,,0.00,VWS V14.01,2013-01-09 09:29:00,
2013-01-09 04:34:00,9.7,5.0,30.26,WNW,294,3.1,3.1,81,0.00,,,0.00,VWS V14.01,2013-01-09 09:34:00,
2013-01-09 04:39:00,9.5,4.9,30.26,WNW,294,3.1,3.1,81,0.00,,,0.00,VWS V14.01,2013-01-09 09:39:00,
2013-01-09 04:44:00,9.3,4.7,30.23,WNW,294,3.1,3.1,81,0.00,,,0.00,VWS V14.01,2013-01-09 09:44:00,
2013-01-09 04:49:00,9.3,4.7,30.23,WNW,294,3.1,3.1,81,0.00,,,0.00,VWS V14.01,2013-01-09 09:49:00,
2013-01-09 04:54:00,9.1,4.5,30.23,WNW,294,3.1,3.1,81,0.00,,,0.00,VWS V14.01,2013-01-09 09:54:00,
2013-01-09 04:59:00,9.0,4.3,30.23,WNW,294,3.1,3.1,81,0.00,,,0.00,VWS V14.01,2013-01-09 09:59:00,
2013-01-09 05:04:00,8.8,4.2,30.23,WNW,294,3.1,3.1,81,0.00,,,0.00,VWS V14.01,2013-01-09 10:04:00,
2013-01-09 05:09:00,8.6,4.0,30.23,WNW,294,3.1,3.1,81,0.00,,,0.00,VWS V14.01,2013-01-09 10:09:00,
2013-01-09 05:14:00,8.4,3.8,30.23,WNW,294,3.1,3.1,81,0.00,,,0.00,VWS V14.01,2013-01-09 10:14:00,
2013-01-09 05:19:00,8.4,3.8,30.23,WNW,294,3.1,3.1,81,0.00,,,0.00,VWS V14.01,2013-01-09 10:19:00,
2013-01-09 05:24:00,8.1,3.5,30.23,WNW,294,3.1,3.1,81,0.00,,,0.00,VWS V14.01,2013-01-09 10:24:00,
2013-01-09 05:29:00,7.9,3.3,30.23,WNW,294,3.1,3.1,81,0.00,,,0.00,VWS V14.01,2013-01-09 10:29:00,
2013-01-09 05:34:00,7.7,3.1,30.23,WNW,294,3.1,3.1,81,0.00,,,0.00,VWS V14.01,2013-01-09 10:34:00,
2013-01-09 05:39:00,7.7,3.1,30.23,WNW,294,3.1,3.1,81,0.00,,,0.00,VWS V14.01,2013-01-09 10:39:00,
2013-01-09 05:44:00,7.5,2.9,30.23,WNW,294,3.1,3.1,81,0.00,,,0.00,VWS V14.01,2013-01-09 10:44:00,
2013-01-09 05:49:00,7.3,2.8,30.23,WNW,294,3.1,3.1,81,0.00,,,0.00,VWS V14.01,2013-01-09 10:49:00,
2013-01-09 05:54:00,7.2,2.6,30.23,WNW,294,3.1,3.1,81,0.00,,,0.00,VWS V14.01,2013-01-09 10:54:00,
2013-01-09 05:59:00,7.2,2.6,30.23,WNW,294,3.1,3.1,81,0.00,,,0.00,VWS V14.01,2013-01-09 10:59:00,
2013-01-09 06:04:00,7.0,2.4,30.23,WNW,294,3.1,3.1,81,0.00,,,0.00,VWS V14.01,2013-01-09 11:04:00,
2013-01-09 06:09:00,7.0,2.4,30.23,WNW,294,3.1,3.1,81,0.00,,,0.00,VWS V14.01,2013-01-09 11:09:00,
2013-01-09 06:14:00,6.8,2.2,30.23,WNW,294,3.1,3.1,81,0.00,,,0.00,VWS V14.01,2013-01-09 11:14:00,
2013-01-09 06:19:00,6.8,2.2,30.23,WNW,294,3.1,3.1,81,0.00,,,0.00,VWS V14.01,2013-01-09 11:19:00,
2013-01-09 06:24:00,6.6,2.0,30.23,WNW,294,3.1,3.1,81,0.00,,,0.00,VWS V14.01,2013-01-09 11:24:00,
2013-01-09 06:29:00,6.4,1.9,30.23,WNW,294,3.1,3.1,81,0.00,,,0.00,VWS V14.01,2013-01-09 11:29:00,
2013-01-09 06:34:00,6.4,1.9,30.23,WNW,294,3.1,3.1,81,0.00,,,0.00,VWS V14.01,2013-01-09 11:34:00,
2013-01-09 06:39:00,6.3,1.7,30.23,WNW,294,3.1,3.1,81,0.00,,,0.00,VWS V14.01,2013-01-09 11:39:00,
2013-01-09 06:44:00,6.1,1.5,30.23,WNW,294,3.1,3.1,81,0.00,,,0.00,VWS V14.01,2013-01-09 11:44:00,
2013-01-09 06:49:00,5.9,1.3,30.23,WNW,294,3.1,3.1,81,0.00,,,0.00,VWS V14.01,2013-01-09 11:49:00,
2013-01-09 06:54:00,5.7,1.2,30.23,WNW,294,3.1,3.1,81,0.00,,,0.00,VWS V14.01,2013-01-09 11:54:00,
2013-01-09 06:59:00,5.7,1.2,30.23,WNW,294,3.1,3.1,81,0.00,,,0.00,VWS V14.01,2013-01-09 11:59:00,
2013-01-09 07:04:00,5.5,1.0,30.23,WNW,294,3.1,3.1,81,0.00,,,0.00,VWS V14.01,2013-01-09 12:04:00,
2013-01-09 07:09:00,5.5,1.0,30.23,WNW,294,3.1,3.1,81,0.00,,,0.00,VWS V14.01,2013-01-09 12:09:00,
2013-01-09 07:14:00,5.4,0.8,30.23,WNW,294,3.1,3.1,81,0.00,,,0.00,VWS V14.01,2013-01-09 12:14:00,
2013-01-09 07:19:00,5.4,0.8,30.23,WNW,294,3.1,3.1,81,0.00,,,0.00,VWS V14.01,2013-01-09 12:19:00,
2013-01-09 07:24:00,5.2,0.6,30.23,WNW,294,3.1,3.1,81,0.00,,,0.00,VWS V14.01,2013-01-09 12:24:00,
2013-01-09 07:29:00,5.0,0.5,30.23,WNW,294,3.1,3.1,81,0.00,,,0.00,VWS V14.01,2013-01-09 12:29:00,
2013-01-09 07:34:00,5.0,0.5,30.23,WNW,294,3.1,3.1,81,0.00,,,0.00,VWS V14.01,2013-01-09 12:34:00,
2013-01-09 07:39:00,4.8,0.3,30.23,WNW,294,3.1,3.1,81,0.00,,,0.00,VWS V14.01,2013-01-09 12:39:00,
2013-01-09 07:44:00,4.6,0.1,30.23,WNW,294,3.1,3.1,81,0.00,,,0.00,VWS V14.01,2013-01-09 12:44:00,
2013-01-09 07:49:00,4.6,0.1,30.23,WNW,294,3.1,3.1,81,0.00,,,0.00,VWS V14.01,2013-01-09 12:49:00,
2013-01-09 07:54:00,4.5,-0.1,30.23,WNW,294,3.1,3.1,81,0.00,,,0.00,VWS V14.01,2013-01-09 12:54:00,
2013-01-09 07:59:00,4.5,-0.1,30.23,WNW,294,3.1,3.1,81,0.00,,,0.00,VWS V14.01,2013-01-09 12:59:00,
2013-01-09 08:04:00,4.5,-0.1,30.20,WNW,294,3.1,3.1,81,0.00,,,0.00,VWS V14.01,2013-01-09 13:04:00,
2013-01-09 08:09:00,4.5,-0.1,30.20,WNW,294,3.1,3.1,81,0.00,,,0.00,VWS V14.01,2013-01-09 13:09:00,
2013-01-09 08:14:00,4.5,-0.1,30.20,WNW,294,3.1,3.1,81,0.00,,,0.00,VWS V14.01,2013-01-09 13:14:00,
2013-01-09 08:20:00,4.6,0.1,30.20,WNW,294,3.1,3.1,81,0.00,,,0.00,VWS V14.01,2013-01-09 13:20:00,
2013-01-09 08:25:00,4.8,0.3,30.20,WNW,294,3.1,3.1,81,0.00,,,0.00,VWS V14.01,2013-01-09 13:25:00,
2013-01-09 08:30:00,5.0,0.5,30.20,WNW,294,3.1,3.1,81,0.00,,,0.00,VWS V14.01,2013-01-09 13:30:00,
2013-01-09 08:35:00,5.4,0.8,30.20,WNW,294,3.1,3.1,81,0.00,,,0.00,VWS V14.01,2013-01-09 13:35:00,
2013-01-09 08:40:00,5.5,1.0,30.20,WNW,294,3.1,3.1,81,0.00,,,0.00,VWS V14.01,2013-01-09 13:40:00,
2013-01-09 08:45:00,5.9,1.3,30.20,WNW,294,3.1,3.1,81,0.00,,,0.00,VWS V14.01,2013-01-09 13:45:00,
2013-01-09 08:50:00,6.4,1.9,30.20,WNW,294,3.1,3.1,81,0.00,,,0.00,VWS V14.01,2013-01-09 13:50:00,
2013-01-09 08:55:00,6.8,2.2,30.20,WNW,294,3.1,3.1,81,0.00,,,0.00,VWS V14.01,2013-01-09 13:55:00,
2013-01-09 09:00:00,7.2,2.6,30.23,WNW,294,3.1,3.1,81,0.00,,,0.00,VWS V14.01,2013-01-09 14:00:00,
2013-01-09 09:05:00,7.5,2.9,30.23,WNW,294,3.1,3.1,81,0.00,,,0.00,VWS V14.01,2013-01-09 14:05:00,
2013-01-09 09:10:00,7.9,3.3,30.23,WNW,294,3.1,3.1,81,0.00,,,0.00,VWS V14.01,2013-01-09 14:10:00,
2013-01-09 09:15:00,8.1,3.5,30.23,WNW,294,3.1,3.1,81,0.00,,,0.00,VWS V14.01,2013-01-09 14:15:00,
2013-01-09 09:20:00,8.4,3.8,30.23,WNW,294,3.1,3.1,81,0.00,,,0.00,VWS V14.01,2013-01-09 14:20:00,
2013-01-09 09:25:00,9.0,4.3,30.23,WNW,294,3.1,3.1,81,0.00,,,0.00,VWS V14.01,2013-01-09 14:25:00,
2013-01-09 09:30:00,9.5,4.9,30.20,WNW,294,3.1,3.1,81,0.00,,,0.00,VWS V14.01,2013-01-09 14:30:00,
2013-01-09 09:35:00,9.9,5.2,30.20,WNW,294,3.1,3.1,81,0.00,,,0.00,VWS V14.01,2013-01-09 14:35:00,
2013-01-09 09:40:00,10.0,5.4,30.20,WNW,294,3.1,3.1,81,0.00,,,0.00,VWS V14.01,2013-01-09 14:40:00,
2013-01-09 09:45:00,10.8,6.1,30.20,WNW,294,3.1,3.1,81,0.00,,,0.00,VWS V14.01,2013-01-09 14:45:00,
2013-01-09 09:50:00,11.3,6.6,30.20,WNW,294,3.1,3.1,81,0.00,,,0.00,VWS V14.01,2013-01-09 14:50:00,
2013-01-09 09:55:00,11.7,7.0,30.20,WNW,294,3.1,3.1,81,0.00,,,0.00,VWS V14.01,2013-01-09 14:55:00,
2013-01-09 10:00:00,12.0,7.3,30.14,WNW,294,3.1,3.1,81,0.00,,,0.00,VWS V14.01,2013-01-09 15:00:00,
2013-01-09 10:05:00,12.2,7.5,30.14,WNW,294,3.1,3.1,81,0.00,,,0.00,VWS V14.01,2013-01-09 15:05:00,
2013-01-09 10:10:00,12.6,7.8,30.14,WNW,294,3.1,3.1,81,0.00,,,0.00,VWS V14.01,2013-01-09 15:10:00,
2013-01-09 10:15:00,13.1,8.4,30.14,WNW,294,3.1,3.1,81,0.00,,,0.00,VWS V14.01,2013-01-09 15:15:00,
2013-01-09 10:20:00,13.3,8.6,30.14,WNW,294,3.1,3.1,81,0.00,,,0.00,VWS V14.01,2013-01-09 15:20:00,
2013-01-09 10:25:00,13.5,8.7,30.14,WNW,294,3.1,3.1,81,0.00,,,0.00,VWS V14.01,2013-01-09 15:25:00,
2013-01-09 10:30:00,13.8,9.1,30.11,WNW,294,3.1,3.1,81,0.00,,,0.00,VWS V14.01,2013-01-09 15:30:00,
2013-01-09 10:35:00,14.2,10.0,30.11,WNW,294,3.1,3.1,83,0.00,,,0.00,VWS V14.01,2013-01-09 15:35:00,
2013-01-09 10:40:00,14.7,10.5,30.11,WNW,294,3.1,3.1,83,0.00,,,0.00,VWS V14.01,2013-01-09 15:40:00,
2013-01-09 10:45:00,15.1,10.9,30.11,WNW,294,3.1,3.1,83,0.00,,,0.00,VWS V14.01,2013-01-09 15:45:00,
2013-01-09 10:50:00,15.3,11.0,30.11,WNW,294,3.1,3.1,83,0.00,,,0.00,VWS V14.01,2013-01-09 15:50:00,
2013-01-09 10:55:00,15.6,11.4,30.11,WNW,294,3.1,3.1,83,0.00,,,0.00,VWS V14.01,2013-01-09 15:55:00,
2013-01-09 11:00:00,16.3,12.1,30.11,WNW,294,3.1,3.1,83,0.00,,,0.00,VWS V14.01,2013-01-09 16:00:00,
2013-01-09 11:05:00,16.5,12.3,30.11,WNW,294,3.1,3.1,83,0.00,,,0.00,VWS V14.01,2013-01-09 16:05:00,
2013-01-09 11:10:00,16.9,12.6,30.11,WNW,294,3.1,3.1,83,0.00,,,0.00,VWS V14.01,2013-01-09 16:10:00,
2013-01-09 11:15:00,17.1,13.1,30.11,WNW,294,3.1,3.1,84,0.00,,,0.00,VWS V14.01,2013-01-09 16:15:00,
2013-01-09 11:20:00,18.5,14.5,30.11,WNW,294,3.1,3.1,84,0.00,,,0.00,VWS V14.01,2013-01-09 16:20:00,
2013-01-09 11:25:00,18.9,15.1,30.11,WNW,294,3.1,3.1,85,0.00,,,0.00,VWS V14.01,2013-01-09 16:25:00,
2013-01-09 11:30:00,19.6,15.8,30.08,WNW,294,3.1,3.1,85,0.00,,,0.00,VWS V14.01,2013-01-09 16:30:00,
2013-01-09 11:35:00,20.1,16.3,30.08,WNW,294,3.1,3.1,85,0.00,,,0.00,VWS V14.01,2013-01-09 16:35:00,
2013-01-09 11:40:00,20.3,16.5,30.08,WNW,294,3.1,3.1,85,0.00,,,0.00,VWS V14.01,2013-01-09 16:40:00,
2013-01-09 11:45:00,20.7,17.1,30.08,WNW,294,3.1,3.1,86,0.00,,,0.00,VWS V14.01,2013-01-09 16:45:00,
2013-01-09 11:50:00,21.0,17.5,30.08,WNW,294,3.1,3.1,86,0.00,,,0.00,VWS V14.01,2013-01-09 16:50:00,
2013-01-09 11:55:00,21.4,17.9,30.08,WNW,294,3.1,3.1,86,0.00,,,0.00,VWS V14.01,2013-01-09 16:55:00,
2013-01-09 12:00:00,21.7,18.2,30.08,WNW,294,3.1,3.1,86,0.00,,,0.00,VWS V14.01,2013-01-09 17:00:00,
2013-01-09 12:05:00,21.9,18.4,30.08,WNW,294,3.1,3.1,86,0.00,,,0.00,VWS V14.01,2013-01-09 17:05:00,
2013-01-09 12:10:00,22.5,19.2,30.08,WNW,294,3.1,3.1,87,0.00,,,0.00,VWS V14.01,2013-01-09 17:10:00,
2013-01-09 12:15:00,22.6,19.4,30.08,WNW,294,3.1,3.1,87,0.00,,,0.00,VWS V14.01,2013-01-09 17:15:00,
2013-01-09 12:20:00,23.2,19.9,30.08,WNW,294,3.1,3.1,87,0.00,,,0.00,VWS V14.01,2013-01-09 17:20:00,
2013-01-09 12:25:00,23.9,20.6,30.08,WNW,294,3.1,3.1,87,0.00,,,0.00,VWS V14.01,2013-01-09 17:25:00,
2013-01-09 12:30:00,25.3,22.3,30.05,WNW,294,3.1,3.1,88,0.00,,,0.00,VWS V14.01,2013-01-09 17:30:00,
2013-01-09 12:36:00,27.9,25.0,30.05,WNW,294,3.1,3.1,89,0.00,,,0.00,VWS V14.01,2013-01-09 17:36:00,
2013-01-09 12:41:00,29.8,27.0,30.05,WNW,294,3.1,3.1,89,0.00,,CLR,0.00,VWS V14.01,2013-01-09 17:41:00,
2013-01-09 12:46:00,31.8,29.2,30.05,WNW,294,3.1,3.1,90,0.00,,CLR,0.00,VWS V14.01,2013-01-09 17:46:00,
2013-01-09 12:51:00,32.4,29.8,30.05,WNW,294,3.1,3.1,90,0.00,,CLR,0.00,VWS V14.01,2013-01-09 17:51:00,
2013-01-09 12:56:00,33.8,31.2,30.05,WNW,294,3.1,3.1,90,0.00,,CLR,0.00,VWS V14.01,2013-01-09 17:56:00,
2013-01-09 13:01:00,34.7,32.1,29.99,WNW,294,3.1,3.1,90,0.00,,CLR,0.00,VWS V14.01,2013-01-09 18:01:00,
2013-01-09 13:06:00,34.7,32.1,29.99,WNW,294,3.1,3.1,90,0.00,,CLR,0.00,VWS V14.01,2013-01-09 18:06:00,
2013-01-09 13:11:00,35.6,32.4,29.99,WNW,294,3.1,3.1,88,0.00,,CLR,0.00,VWS V14.01,2013-01-09 18:11:00,
2013-01-09 13:16:00,36.1,32.9,29.99,WNW,294,3.1,3.1,88,0.00,,CLR,0.00,VWS V14.01,2013-01-09 18:16:00,
2013-01-09 13:21:00,36.9,33.4,29.99,WNW,294,3.1,3.1,87,0.00,,CLR,0.00,VWS V14.01,2013-01-09 18:21:00,
2013-01-09 13:26:00,36.9,33.1,29.99,WNW,294,3.1,3.1,86,0.00,,CLR,0.00,VWS V14.01,2013-01-09 18:26:00,
2013-01-09 13:31:00,37.2,32.8,29.96,WNW,294,3.1,3.1,84,0.00,,CLR,0.00,VWS V14.01,2013-01-09 18:31:00,
2013-01-09 13:36:00,37.4,32.7,29.96,WNW,294,3.1,3.1,83,0.00,,CLR,0.00,VWS V14.01,2013-01-09 18:36:00,
2013-01-09 13:41:00,37.2,32.5,29.96,WNW,294,3.1,3.1,83,0.00,,OVC100,0.00,VWS V14.01,2013-01-09 18:41:00,
2013-01-09 13:44:00,36.7,31.4,29.96,WNW,294,3.1,3.1,81,0.00,,OVC100,0.00,VWS V14.01,2013-01-09 18:44:00,
2013-01-09 13:48:00,35.6,29.7,29.96,WNW,294,3.1,3.1,79,0.00,,OVC100,0.00,VWS V14.01,2013-01-09 18:48:00,
2013-01-09 13:49:00,35.6,29.7,29.96,WNW,294,3.1,3.1,79,0.00,,OVC100,0.00,VWS V14.01,2013-01-09 18:49:00,
2013-01-09 13:54:00,35.2,29.4,29.96,WNW,294,3.1,3.1,79,0.00,,OVC100,0.00,VWS V14.01,2013-01-09 18:54:00,
2013-01-09 13:59:00,36.3,30.8,29.93,WNW,294,3.1,3.1,80,0.00,,OVC100,0.00,VWS V14.01,2013-01-09 18:59:00,
2013-01-09 14:04:00,36.7,31.1,29.93,WNW,294,3.1,3.1,80,0.00,,OVC100,0.00,VWS V14.01,2013-01-09 19:04:00,
2013-01-09 14:09:00,36.1,30.0,29.93,WNW,294,3.1,3.1,78,0.00,,OVC100,0.00,VWS V14.01,2013-01-09 19:09:00,
2013-01-09 14:14:00,37.0,30.8,29.93,WNW,294,3.1,3.1,78,0.00,,OVC100,0.00,VWS V14.01,2013-01-09 19:14:00,
2013-01-09 14:19:00,37.8,30.9,29.93,WNW,294,3.1,3.1,76,0.00,,OVC100,0.00,VWS V14.01,2013-01-09 19:19:00,
2013-01-09 14:24:00,38.7,30.4,29.93,WNW,294,3.1,3.1,72,0.00,,OVC100,0.00,VWS V14.01,2013-01-09 19:24:00,
2013-01-09 14:29:00,38.8,29.5,29.93,WNW,294,3.1,3.1,69,0.00,,OVC100,0.00,VWS V14.01,2013-01-09 19:29:00,
2013-01-09 14:34:00,38.8,27.7,29.93,WNW,294,3.1,3.1,64,0.00,,OVC100,0.00,VWS V14.01,2013-01-09 19:34:00,
2013-01-09 14:39:00,38.8,27.0,29.93,WNW,294,3.1,3.1,62,0.00,,OVC100,0.00,VWS V14.01,2013-01-09 19:39:00,
2013-01-09 14:44:00,38.8,26.6,29.93,WNW,294,3.1,3.1,61,0.00,,OVC060,0.00,VWS V14.01,2013-01-09 19:44:00,
2013-01-09 14:49:00,38.7,26.0,29.93,WNW,294,3.1,3.1,60,0.00,,OVC060,0.00,VWS V14.01,2013-01-09 19:49:00,
2013-01-09 14:54:00,38.7,25.6,29.93,WNW,294,3.1,3.1,59,0.00,,OVC060,0.00,VWS V14.01,2013-01-09 19:54:00,
2013-01-09 14:59:00,38.7,25.6,29.90,WNW,294,3.1,3.1,59,0.00,,OVC060,0.00,VWS V14.01,2013-01-09 19:59:00,
2013-01-09 15:04:00,38.7,25.6,29.90,WNW,294,3.1,3.1,59,0.00,,OVC060,0.00,VWS V14.01,2013-01-09 20:04:00,
2013-01-09 15:09:00,38.7,26.0,29.90,WNW,294,3.1,3.1,60,0.00,,OVC060,0.00,VWS V14.01,2013-01-09 20:09:00,
2013-01-09 15:14:00,38.5,25.8,29.90,WNW,294,3.1,3.1,60,0.00,,OVC060,0.00,VWS V14.01,2013-01-09 20:14:00,
2013-01-09 15:19:00,38.5,26.2,29.90,WNW,294,3.1,3.1,61,0.00,,OVC060,0.00,VWS V14.01,2013-01-09 20:19:00,
2013-01-09 15:24:00,38.5,26.6,29.90,WNW,294,3.1,3.1,62,0.00,,OVC060,0.00,VWS V14.01,2013-01-09 20:24:00,
2013-01-09 15:29:00,38.5,26.6,29.90,WNW,294,3.1,3.1,62,0.00,,OVC060,0.00,VWS V14.01,2013-01-09 20:29:00,
2013-01-09 15:34:00,38.5,27.0,29.90,WNW,294,3.1,3.1,63,0.00,,OVC060,0.00,VWS V14.01,2013-01-09 20:34:00,
2013-01-09 15:39:00,38.5,27.0,29.90,WNW,294,3.1,3.1,63,0.00,,OVC060,0.00,VWS V14.01,2013-01-09 20:39:00,
2013-01-09 15:44:00,38.7,27.5,29.90,WNW,294,3.1,3.1,64,0.00,,OVC060,0.00,VWS V14.01,2013-01-09 20:44:00,
2013-01-09 15:49:00,38.5,27.4,29.90,WNW,294,3.1,3.1,64,0.00,,OVC060,0.00,VWS V14.01,2013-01-09 20:49:00,
2013-01-09 15:54:00,38.5,27.4,29.90,WNW,294,3.1,3.1,64,0.00,,OVC047,0.00,VWS V14.01,2013-01-09 20:54:00,
2013-01-09 15:59:00,38.3,27.6,29.90,WNW,294,3.1,3.1,65,0.00,,OVC047,0.00,VWS V14.01,2013-01-09 20:59:00,
2013-01-09 16:04:00,38.3,28.0,29.90,WNW,294,3.1,3.1,66,0.00,,OVC047,0.00,VWS V14.01,2013-01-09 21:04:00,
2013-01-09 16:09:00,38.1,27.8,29.90,WNW,294,3.1,3.1,66,0.00,,OVC047,0.00,VWS V14.01,2013-01-09 21:09:00,
2013-01-09 16:14:00,38.1,28.1,29.90,WNW,294,3.1,3.1,67,0.00,,OVC047,0.00,VWS V14.01,2013-01-09 21:14:00,
2013-01-09 16:19:00,37.9,28.0,29.90,WNW,294,3.1,3.1,67,0.00,,OVC047,0.00,VWS V14.01,2013-01-09 21:19:00,
2013-01-09 16:24:00,37.9,28.3,29.90,WNW,294,3.1,3.1,68,0.00,,OVC047,0.00,VWS V14.01,2013-01-09 21:24:00,
2013-01-09 16:29:00,37.9,28.7,29.90,WNW,294,3.1,3.1,69,0.00,,OVC047,0.00,VWS V14.01,2013-01-09 21:29:00,
2013-01-09 16:34:00,38.1,28.9,29.90,WNW,294,3.1,3.1,69,0.00,,OVC047,0.00,VWS V14.01,2013-01-09 21:34:00,
2013-01-09 16:39:00,38.1,28.9,29.90,WNW,294,3.1,3.1,69,0.00,,OVC047,0.00,VWS V14.01,2013-01-09 21:39:00,
2013-01-09 16:44:00,37.9,28.7,29.90,WNW,294,3.1,3.1,69,0.00,,OVC029,0.00,VWS V14.01,2013-01-09 21:44:00,
2013-01-09 16:49:00,37.8,28.9,29.90,WNW,294,3.1,3.1,70,0.00,,OVC029,0.00,VWS V14.01,2013-01-09 21:49:00,
2013-01-09 16:54:00,37.8,28.9,29.90,WNW,294,3.1,3.1,70,0.00,,OVC032,0.00,VWS V14.01,2013-01-09 21:54:00,
2013-01-09 16:59:00,37.6,28.7,29.90,WNW,294,3.1,3.1,70,0.00,,OVC032,0.00,VWS V14.01,2013-01-09 21:59:00,
2013-01-09 17:04:00,37.6,29.0,29.90,WNW,294,3.1,3.1,71,0.00,,OVC032,0.00,VWS V14.01,2013-01-09 22:04:00,
2013-01-09 17:09:00,37.6,29.0,29.90,WNW,294,3.1,3.1,71,0.00,,OVC032,0.00,VWS V14.01,2013-01-09 22:09:00,
2013-01-09 17:14:00,37.6,29.0,29.90,WNW,294,3.1,3.1,71,0.00,,OVC032,0.00,VWS V14.01,2013-01-09 22:14:00,
2013-01-09 17:19:00,37.6,29.0,29.90,WNW,294,3.1,3.1,71,0.00,,OVC032,0.00,VWS V14.01,2013-01-09 22:19:00,
2013-01-09 17:24:00,37.8,29.2,29.90,WNW,294,3.1,3.1,71,0.00,,OVC032,0.00,VWS V14.01,2013-01-09 22:24:00,
2013-01-09 17:29:00,37.9,29.4,29.90,WNW,294,3.1,3.1,71,0.00,,OVC032,0.00,VWS V14.01,2013-01-09 22:29:00,
2013-01-09 17:34:00,37.9,29.4,29.90,WNW,294,3.1,3.1,71,0.00,,OVC032,0.00,VWS V14.01,2013-01-09 22:34:00,
2013-01-09 17:39:00,38.1,29.2,29.90,WNW,294,3.1,3.1,70,0.00,,OVC032,0.00,VWS V14.01,2013-01-09 22:39:00,
2013-01-09 17:44:00,38.1,28.9,29.90,WNW,294,3.1,3.1,69,0.00,,OVC042,0.00,VWS V14.01,2013-01-09 22:44:00,
2013-01-09 17:49:00,38.1,28.5,29.90,WNW,294,3.1,3.1,68,0.00,,OVC042,0.00,VWS V14.01,2013-01-09 22:49:00,
2013-01-09 17:54:00,38.1,28.5,29.90,WNW,294,3.1,3.1,68,0.00,,OVC042,0.00,VWS V14.01,2013-01-09 22:54:00,
2013-01-09 17:59:00,38.1,27.8,29.90,WNW,294,3.1,3.1,66,0.00,,OVC042,0.00,VWS V14.01,2013-01-09 22:59:00,
2013-01-09 18:04:00,38.1,27.4,29.90,WNW,294,3.1,3.1,65,0.00,,OVC042,0.00,VWS V14.01,2013-01-09 23:04:00,
2013-01-09 18:09:00,37.9,27.2,29.90,WNW,294,3.1,3.1,65,0.00,,OVC042,0.00,VWS V14.01,2013-01-09 23:09:00,
2013-01-09 18:14:00,37.8,27.4,29.90,WNW,294,3.1,3.1,66,0.00,,OVC042,0.00,VWS V14.01,2013-01-09 23:14:00,
2013-01-09 18:19:00,37.8,27.4,29.90,WNW,294,3.1,3.1,66,0.00,,OVC042,0.00,VWS V14.01,2013-01-09 23:19:00,
2013-01-09 18:24:00,37.6,27.3,29.90,WNW,294,3.1,3.1,66,0.00,,OVC042,0.00,VWS V14.01,2013-01-09 23:24:00,
2013-01-09 18:29:00,37.4,27.5,29.93,WNW,294,3.1,3.1,67,0.00,,OVC042,0.00,VWS V14.01,2013-01-09 23:29:00,
2013-01-09 18:34:00,37.4,27.5,29.93,WNW,294,3.1,3.1,67,0.00,,OVC042,0.00,VWS V14.01,2013-01-09 23:34:00,
2013-01-09 18:40:00,37.4,27.5,29.93,WNW,294,3.1,3.1,67,0.00,,OVC042,0.00,VWS V14.01,2013-01-09 23:40:00,
2013-01-09 18:45:00,37.2,27.3,29.93,WNW,294,3.1,3.1,67,0.00,,OVC042,0.00,VWS V14.01,2013-01-09 23:45:00,
2013-01-09 18:50:00,37.0,27.1,29.93,WNW,294,3.1,3.1,67,0.00,,OVC042,0.00,VWS V14.01,2013-01-09 23:50:00,
2013-01-09 18:55:00,36.9,27.3,29.96,WNW,294,3.1,3.1,68,0.00,,OVC042,0.00,VWS V14.01,2013-01-09 23:55:00,
2013-01-09 19:00:00,36.9,27.3,29.96,WNW,294,3.1,3.1,68,0.00,,OVC042,0.00,VWS V14.01,2013-01-10 00:00:00,
2013-01-09 19:05:00,36.7,27.1,29.96,WNW,294,3.1,3.1,68,0.00,,OVC042,0.00,VWS V14.01,2013-01-10 00:05:00,
2013-01-09 19:10:00,36.5,27.3,29.96,WNW,294,3.1,3.1,69,0.00,,OVC042,0.00,VWS V14.01,2013-01-10 00:10:00,
2013-01-09 19:15:00,36.5,27.0,29.96,WNW,294,3.1,3.1,68,0.00,,OVC035,0.00,VWS V14.01,2013-01-10 00:15:00,
2013-01-09 19:20:00,36.5,27.0,29.96,WNW,294,3.1,3.1,68,0.00,,OVC035,0.00,VWS V14.01,2013-01-10 00:20:00,
2013-01-09 19:25:00,36.3,26.8,29.96,WNW,294,3.1,3.1,68,0.00,,OVC035,0.00,VWS V14.01,2013-01-10 00:25:00,
2013-01-09 19:30:00,36.3,26.4,29.96,WNW,294,3.1,3.1,67,0.00,,OVC035,0.00,VWS V14.01,2013-01-10 00:30:00,
2013-01-09 19:35:00,36.3,26.4,29.96,WNW,294,3.1,3.1,67,0.00,,OVC035,0.00,VWS V14.01,2013-01-10 00:35:00,
2013-01-09 19:40:00,36.3,26.4,29.96,WNW,294,3.1,3.1,67,0.00,,OVC035,0.00,VWS V14.01,2013-01-10 00:40:00,
2013-01-09 19:45:00,36.3,26.4,29.96,WNW,294,3.1,3.1,67,0.00,,OVC041,0.00,VWS V14.01,2013-01-10 00:45:00,
2013-01-09 19:50:00,36.3,26.1,29.96,WNW,294,3.1,3.1,66,0.00,,OVC041,0.00,VWS V14.01,2013-01-10 00:50:00,
2013-01-09 19:55:00,36.1,25.1,29.96,WNW,294,3.1,3.1,64,0.00,,OVC041,0.00,VWS V14.01,2013-01-10 00:55:00,
2013-01-09 20:00:00,36.1,25.1,29.96,WNW,294,3.1,3.1,64,0.00,,OVC041,0.00,VWS V14.01,2013-01-10 01:00:00,
2013-01-09 20:05:00,36.1,25.1,29.96,WNW,294,3.1,3.1,64,0.00,,OVC041,0.00,VWS V14.01,2013-01-10 01:05:00,
2013-01-09 20:10:00,36.1,24.4,29.96,WNW,294,3.1,3.1,62,0.00,,OVC041,0.00,VWS V14.01,2013-01-10 01:10:00,
2013-01-09 20:15:00,36.1,24.4,29.96,WNW,294,3.1,3.1,62,0.00,,OVC041,0.00,VWS V14.01,2013-01-10 01:15:00,
2013-01-09 20:20:00,36.0,23.8,29.96,WNW,294,3.1,3.1,61,0.00,,OVC041,0.00,VWS V14.01,2013-01-10 01:20:00,
2013-01-09 20:25:00,36.0,23.8,29.99,WNW,294,3.1,3.1,61,0.00,,OVC041,0.00,VWS V14.01,2013-01-10 01:25:00,
2013-01-09 20:30:00,35.8,23.3,29.99,WNW,294,3.1,3.1,60,0.00,,OVC041,0.00,VWS V14.01,2013-01-10 01:30:00,
2013-01-09 20:35:00,35.8,23.3,29.99,WNW,294,3.1,3.1,60,0.00,,OVC041,0.00,VWS V14.01,2013-01-10 01:35:00,
2013-01-09 20:40:00,35.8,23.3,29.99,WNW,294,3.1,3.1,60,0.00,,OVC049,0.00,VWS V14.01,2013-01-10 01:40:00,
2013-01-09 20:45:00,35.6,23.5,29.99,WNW,294,3.1,3.1,61,0.00,,OVC049,0.00,VWS V14.01,2013-01-10 01:45:00,
2013-01-09 20:50:00,35.6,23.9,29.99,WNW,294,3.1,3.1,62,0.00,,OVC049,0.00,VWS V14.01,2013-01-10 01:50:00,
2013-01-09 20:55:00,35.4,24.1,29.96,WNW,294,3.1,3.1,63,0.00,,OVC049,0.00,VWS V14.01,2013-01-10 01:55:00,
2013-01-09 21:00:00,35.4,24.5,29.96,WNW,294,3.1,3.1,64,0.00,,OVC049,0.00,VWS V14.01,2013-01-10 02:00:00,
2013-01-09 21:05:00,35.4,24.8,29.96,WNW,294,3.1,3.1,65,0.00,,OVC049,0.00,VWS V14.01,2013-01-10 02:05:00,
2013-01-09 21:10:00,35.6,25.0,29.96,WNW,294,3.1,3.1,65,0.00,,OVC049,0.00,VWS V14.01,2013-01-10 02:10:00,
2013-01-09 21:15:00,35.6,25.4,29.96,WNW,294,3.1,3.1,66,0.00,,OVC049,0.00,VWS V14.01,2013-01-10 02:15:00,
2013-01-09 21:21:00,35.6,25.4,29.96,WNW,294,3.1,3.1,66,0.00,,OVC049,0.00,VWS V14.01,2013-01-10 02:21:00,
2013-01-09 21:26:00,35.6,25.4,29.99,WNW,294,3.1,3.1,66,0.00,,OVC049,0.00,VWS V14.01,2013-01-10 02:26:00,
2013-01-09 21:31:00,35.6,25.7,29.99,WNW,294,3.1,3.1,67,0.00,,OVC049,0.00,VWS V14.01,2013-01-10 02:31:00,
2013-01-09 21:36:00,35.6,25.7,29.99,WNW,294,3.1,3.1,67,0.00,,OVC049,0.00,VWS V14.01,2013-01-10 02:36:00,
2013-01-09 21:41:00,35.6,25.7,29.99,WNW,294,3.1,3.1,67,0.00,,OVC050,0.00,VWS V14.01,2013-01-10 02:41:00,
2013-01-09 21:46:00,35.6,26.1,29.99,WNW,294,3.1,3.1,68,0.00,,OVC050,0.00,VWS V14.01,2013-01-10 02:46:00,
2013-01-09 22:03:00,35.6,26.5,29.99,North,0,0.0,0.0,69,0.00,,OVC050,0.00,VWS V14.01,2013-01-10 03:03:00,
2013-01-09 22:08:00,35.6,26.5,29.99,North,0,0.0,0.0,69,0.04,,OVC050,0.04,VWS V14.01,2013-01-10 03:08:00,
2013-01-09 22:13:00,35.6,26.8,29.99,North,0,0.0,0.0,70,0.04,,OVC050,0.04,VWS V14.01,2013-01-10 03:13:00,
2013-01-09 22:18:00,35.6,26.8,29.99,North,0,0.0,0.0,70,0.04,,OVC050,0.04,VWS V14.01,2013-01-10 03:18:00,
2013-01-09 22:23:00,35.1,26.6,29.99,North,0,0.0,0.0,71,0.04,,OVC050,0.04,VWS V14.01,2013-01-10 03:23:00,
2013-01-09 22:28:00,34.9,26.5,29.99,North,0,0.0,0.0,71,0.04,,OVC050,0.04,VWS V14.01,2013-01-10 03:28:00,
2013-01-09 22:33:00,34.5,26.4,29.99,North,0,0.0,0.0,72,0.04,,OVC050,0.04,VWS V14.01,2013-01-10 03:33:00,
2013-01-09 22:38:00,34.0,27.2,29.99,North,0,0.0,0.0,76,0.04,,OVC050,0.04,VWS V14.01,2013-01-10 03:38:00,
2013-01-09 22:43:00,33.4,27.3,30.02,North,0,0.0,0.0,78,0.04,,,0.04,VWS V14.01,2013-01-10 03:43:00,
2013-01-09 22:49:00,33.3,27.5,30.02,North,0,0.0,0.0,79,0.04,,,0.04,VWS V14.01,2013-01-10 03:49:00,
2013-01-09 22:54:00,33.3,27.8,30.02,North,0,0.0,0.0,80,0.00,,,0.04,VWS V14.01,2013-01-10 03:54:00,
2013-01-09 22:59:00,33.1,27.9,30.02,North,0,0.0,0.0,81,0.00,,,0.04,VWS V14.01,2013-01-10 03:59:00,
2013-01-09 23:04:00,33.1,28.2,30.02,North,0,0.0,0.0,82,0.00,,,0.04,VWS V14.01,2013-01-10 04:04:00,
2013-01-09 23:09:00,33.1,28.2,30.02,North,0,0.0,0.0,82,0.00,,,0.04,VWS V14.01,2013-01-10 04:09:00,
2013-01-09 23:14:00,33.1,28.2,30.05,North,0,0.0,0.0,82,0.00,,,0.04,VWS V14.01,2013-01-10 04:14:00,
2013-01-09 23:19:00,33.1,28.2,30.05,North,0,0.0,0.0,82,0.00,,,0.04,VWS V14.01,2013-01-10 04:19:00,
2013-01-09 23:24:00,33.1,28.2,30.05,North,0,0.0,0.0,82,0.00,,,0.04,VWS V14.01,2013-01-10 04:24:00,
2013-01-09 23:29:00,33.1,28.2,30.05,North,0,0.0,0.0,82,0.00,,,0.04,VWS V14.01,2013-01-10 04:29:00,
2013-01-09 23:34:00,32.9,27.7,30.05,North,0,0.0,0.0,81,0.00,,,0.04,VWS V14.01,2013-01-10 04:34:00,
2013-01-09 23:39:00,32.9,27.7,30.05,North,0,0.0,0.0,81,0.00,,,0.04,VWS V14.01,2013-01-10 04:39:00,
2013-01-09 23:44:00,32.7,27.5,30.05,North,0,0.0,0.0,81,0.00,,,0.04,VWS V14.01,2013-01-10 04:44:00,
2013-01-09 23:49:00,32.7,27.5,30.05,North,0,0.0,0.0,81,0.00,,,0.04,VWS V14.01,2013-01-10 04:49:00,
2013-01-09 23:54:00,32.7,27.5,30.05,North,0,0.0,0.0,81,0.00,,,0.04,VWS V14.01,2013-01-10 04:54:00,
2013-01-09 23:59:00,32.7,27.5,30.08,North,0,0.0,0.0,81,0.00,,,0.04,VWS V14.01,2013-01-10 04:59:00,